Time;durP1;ratioP1;P1;durP2;ratioP2;P2;SDS_P1;SDS_P2;PMS_P1;PMS_P2;Temp;Humidity;BMP_temperature;BMP_pressure;BME280_temperature;BME280_humidity;BME280_pressure;Samples;Min_cycle;Max_cycle;Signal;HPM_P1;HPM_P2
2023/12/12 00:01:41;;;;;;;5.30;4.78;;;3.60;99.90;;;;;;5095773;28;20200;-75
2023/12/12 00:04:08;;;;;;;4.30;3.90;;;3.60;99.90;;;;;;5090571;28;20579;-76
2023/12/12 00:06:35;;;;;;;4.05;3.75;;;3.60;99.90;;;;;;5071536;28;20221;-75
2023/12/12 00:09:03;;;;;;;4.28;3.97;;;3.60;99.90;;;;;;5076791;28;20229;-75
2023/12/12 00:11:30;;;;;;;4.03;3.72;;;3.50;99.90;;;;;;5096553;28;20197;-75
2023/12/12 00:13:57;;;;;;;4.07;3.78;;;3.60;99.90;;;;;;5098602;28;20224;-75
2023/12/12 00:16:24;;;;;;;4.18;3.88;;;3.50;99.90;;;;;;5097845;27;20315;-77
2023/12/12 00:18:53;;;;;;;3.80;3.50;;;3.50;99.90;;;;;;5095981;28;20599;-75
2023/12/12 00:21:20;;;;;;;3.97;3.78;;;3.50;99.90;;;;;;5094059;28;20228;-76
2023/12/12 00:23:47;;;;;;;3.60;3.40;;;3.50;99.90;;;;;;5096194;28;20209;-76
2023/12/12 00:26:14;;;;;;;4.20;3.92;;;3.40;99.90;;;;;;5095254;28;20213;-75
2023/12/12 00:28:42;;;;;;;3.92;3.63;;;3.40;99.90;;;;;;5097006;28;20189;-75
2023/12/12 00:31:09;;;;;;;4.35;4.05;;;3.50;99.90;;;;;;5096108;28;20245;-76
2023/12/12 00:33:36;;;;;;;3.40;3.20;;;3.40;99.90;;;;;;5095709;28;20197;-76
2023/12/12 00:36:05;;;;;;;3.72;3.50;;;3.30;99.90;;;;;;5097212;28;20224;-75
2023/12/12 00:38:32;;;;;;;3.47;3.28;;;3.30;99.90;;;;;;5096107;28;20201;-76
2023/12/12 00:40:59;;;;;;;3.30;3.05;;;3.30;99.90;;;;;;5093749;28;20851;-76
2023/12/12 00:43:26;;;;;;;3.60;3.30;;;3.30;99.90;;;;;;5097091;28;20738;-75
2023/12/12 00:45:53;;;;;;;3.30;3.10;;;3.30;99.90;;;;;;5097812;28;20225;-75
2023/12/12 00:48:20;;;;;;;3.55;3.25;;;3.30;99.90;;;;;;5095641;28;20201;-75
2023/12/12 00:50:48;;;;;;;3.08;2.88;;;3.40;99.90;;;;;;5098177;27;20295;-76
2023/12/12 00:53:16;;;;;;;5.40;5.00;;;3.30;99.90;;;;;;5096934;28;20197;-76
2023/12/12 00:55:44;;;;;;;4.10;3.80;;;3.30;99.90;;;;;;5097948;28;20797;-76
2023/12/12 00:58:11;;;;;;;4.22;3.90;;;3.20;99.90;;;;;;5098226;28;20201;-75
2023/12/12 01:00:40;;;;;;;4.45;4.15;;;3.20;99.90;;;;;;5099186;28;20219;-75
2023/12/12 01:03:07;;;;;;;4.13;3.75;;;3.20;99.90;;;;;;5097535;28;20216;-76
2023/12/12 01:05:34;;;;;;;4.25;3.95;;;3.20;99.90;;;;;;5096925;28;20220;-76
2023/12/12 01:08:02;;;;;;;3.75;3.55;;;3.10;99.90;;;;;;5099712;28;20662;-75
2023/12/12 01:10:30;;;;;;;3.83;3.60;;;3.10;99.90;;;;;;5096067;27;20741;-77
2023/12/12 01:12:58;;;;;;;3.50;3.30;;;3.10;99.90;;;;;;5095276;28;20236;-76
2023/12/12 01:15:25;;;;;;;3.70;3.50;;;3.10;99.90;;;;;;5099169;28;20745;-75
2023/12/12 01:17:52;;;;;;;3.63;3.42;;;3.10;99.90;;;;;;5099755;28;20209;-75
2023/12/12 01:20:19;;;;;;;3.50;3.30;;;3.10;99.90;;;;;;5098204;28;20672;-76
2023/12/12 01:22:46;;;;;;;3.50;3.30;;;3.20;99.90;;;;;;5099184;28;20192;-75
2023/12/12 01:25:13;;;;;;;3.65;3.45;;;3.20;99.90;;;;;;5097873;28;20224;-75
2023/12/12 01:27:42;;;;;;;3.58;3.38;;;3.20;99.90;;;;;;5097463;28;20223;-76
2023/12/12 01:30:09;;;;;;;3.28;3.08;;;3.30;99.90;;;;;;5097599;28;20734;-75
2023/12/12 01:32:36;;;;;;;3.38;3.17;;;3.30;99.90;;;;;;5101491;28;20255;-76
2023/12/12 01:35:04;;;;;;;3.58;3.28;;;3.30;99.90;;;;;;5098216;28;20220;-77
2023/12/12 01:37:31;;;;;;;3.30;3.10;;;3.30;99.90;;;;;;5100736;28;20734;-75
2023/12/12 01:39:58;;;;;;;3.22;3.05;;;3.30;99.90;;;;;;5096252;28;20228;-76
2023/12/12 01:42:25;;;;;;;3.13;2.92;;;3.30;99.90;;;;;;5100462;28;20201;-75
2023/12/12 01:44:53;;;;;;;3.50;3.30;;;3.30;99.90;;;;;;5099441;27;20221;-76
2023/12/12 01:47:20;;;;;;;3.85;3.63;;;3.40;99.90;;;;;;5100091;28;20213;-76
2023/12/12 01:49:48;;;;;;;3.47;3.28;;;3.30;99.90;;;;;;5097419;27;20220;-76
2023/12/12 01:52:16;;;;;;;3.13;2.92;;;3.30;99.90;;;;;;5096873;28;20204;-76
2023/12/12 01:54:46;;;;;;;2.88;2.78;;;3.30;99.90;;;;;;5096892;28;20213;-76
2023/12/12 01:57:17;;;;;;;3.90;3.65;;;3.30;99.90;;;;;;5096368;28;20202;-76
2023/12/12 01:59:46;;;;;;;4.03;3.83;;;3.30;99.90;;;;;;5094240;28;20299;-77
2023/12/12 02:02:17;;;;;;;3.40;3.20;;;3.30;99.90;;;;;;5100205;27;20258;-75
2023/12/12 02:04:46;;;;;;;4.43;4.03;;;3.20;99.90;;;;;;5098961;28;20315;-74
2023/12/12 02:07:14;;;;;;;4.25;3.92;;;3.30;99.90;;;;;;5098929;28;20221;-75
2023/12/12 02:09:42;;;;;;;4.55;4.25;;;3.20;99.90;;;;;;5095946;28;20212;-76
2023/12/12 02:12:09;;;;;;;4.18;3.88;;;3.20;99.90;;;;;;5098264;28;20628;-76
2023/12/12 02:14:37;;;;;;;4.18;3.88;;;3.10;99.90;;;;;;5097878;27;20229;-76
2023/12/12 02:17:05;;;;;;;3.95;3.65;;;3.10;99.90;;;;;;5096556;28;20197;-75
2023/12/12 02:19:34;;;;;;;4.10;3.80;;;3.10;99.90;;;;;;5099143;28;20240;-75
2023/12/12 02:22:02;;;;;;;4.00;3.70;;;3.10;99.90;;;;;;5094513;28;20205;-76
2023/12/12 02:24:29;;;;;;;4.13;3.83;;;3.10;99.90;;;;;;5097094;28;20229;-77
2023/12/12 02:26:57;;;;;;;3.70;3.50;;;3.10;99.90;;;;;;5097107;28;20213;-75
2023/12/12 02:29:24;;;;;;;4.00;3.80;;;3.10;99.90;;;;;;5097100;27;20227;-75
2023/12/12 02:31:51;;;;;;;4.00;3.80;;;3.10;99.90;;;;;;5097143;28;20198;-76
2023/12/12 02:34:18;;;;;;;3.92;3.70;;;3.10;99.90;;;;;;5098629;28;20794;-75
2023/12/12 02:36:45;;;;;;;3.90;3.70;;;3.20;99.90;;;;;;5095591;28;20193;-75
2023/12/12 02:39:14;;;;;;;4.45;4.15;;;3.20;99.90;;;;;;5097913;28;20201;-75
2023/12/12 02:41:41;;;;;;;4.70;4.40;;;3.20;99.90;;;;;;5097046;28;20722;-76
2023/12/12 02:44:08;;;;;;;4.45;4.15;;;3.20;99.90;;;;;;5099679;27;20224;-75
2023/12/12 02:46:35;;;;;;;4.25;3.95;;;3.10;99.90;;;;;;5094632;28;20221;-76
2023/12/12 02:49:02;;;;;;;3.88;3.67;;;3.00;99.90;;;;;;5096602;28;20710;-74
2023/12/12 02:51:30;;;;;;;4.38;4.13;;;3.00;99.90;;;;;;5096824;28;20779;-75
2023/12/12 02:53:57;;;;;;;3.55;3.35;;;3.00;99.90;;;;;;5097082;28;20243;-75
2023/12/12 02:56:25;;;;;;;3.58;3.38;;;3.00;99.90;;;;;;5091767;28;20220;-75
2023/12/12 02:58:52;;;;;;;3.67;3.47;;;3.00;99.90;;;;;;5095478;28;20194;-76
2023/12/12 03:01:19;;;;;;;4.05;3.83;;;3.00;99.90;;;;;;5094048;27;20219;-76
2023/12/12 03:03:46;;;;;;;4.82;4.53;;;3.00;99.90;;;;;;5096077;28;20204;-76
2023/12/12 03:06:13;;;;;;;3.90;3.70;;;3.00;99.90;;;;;;5094586;28;20214;-75
2023/12/12 03:08:40;;;;;;;4.60;4.28;;;3.00;99.90;;;;;;5096668;28;20698;-76
2023/12/12 03:11:07;;;;;;;4.38;4.07;;;3.00;99.90;;;;;;5096811;28;20219;-75
2023/12/12 03:13:36;;;;;;;4.30;4.00;;;3.00;99.90;;;;;;5096285;28;20285;-76
2023/12/12 03:16:03;;;;;;;4.50;4.18;;;3.00;99.90;;;;;;5099472;27;20770;-76
2023/12/12 03:18:30;;;;;;;3.78;3.58;;;2.90;99.90;;;;;;5094097;28;20285;-77
2023/12/12 03:20:57;;;;;;;4.22;3.92;;;2.90;99.90;;;;;;5098218;28;20590;-75
2023/12/12 03:23:24;;;;;;;4.40;4.10;;;3.00;99.90;;;;;;5098402;28;20231;-76
2023/12/12 03:25:51;;;;;;;4.45;4.15;;;3.00;99.90;;;;;;5096158;28;20236;-75
2023/12/12 03:28:18;;;;;;;3.85;3.65;;;2.90;99.90;;;;;;5097069;28;20758;-75
2023/12/12 03:30:46;;;;;;;4.30;4.00;;;2.90;99.90;;;;;;5097055;28;20252;-76
2023/12/12 03:33:13;;;;;;;3.80;3.60;;;2.90;99.90;;;;;;5097564;28;20212;-76
2023/12/12 03:35:40;;;;;;;4.68;4.38;;;3.00;99.90;;;;;;5097065;28;20220;-76
2023/12/12 03:38:07;;;;;;;4.43;4.13;;;2.90;99.90;;;;;;5096603;28;20204;-75
2023/12/12 03:40:34;;;;;;;4.63;4.32;;;2.90;99.90;;;;;;5096322;27;20224;-75
2023/12/12 03:43:01;;;;;;;4.00;3.70;;;2.90;99.90;;;;;;5094889;28;20209;-77
2023/12/12 03:45:28;;;;;;;4.85;4.50;;;2.90;99.90;;;;;;5097093;28;20236;-76
2023/12/12 03:47:56;;;;;;;4.50;4.20;;;2.90;99.90;;;;;;5096945;28;20220;-75
2023/12/12 03:50:23;;;;;;;4.15;3.85;;;2.90;99.90;;;;;;5099724;28;20282;-76
2023/12/12 03:52:50;;;;;;;4.53;4.22;;;2.90;99.90;;;;;;5098926;28;20201;-75
2023/12/12 03:55:18;;;;;;;5.05;4.75;;;2.90;99.90;;;;;;5100665;28;20212;-76
2023/12/12 03:57:45;;;;;;;5.18;4.78;;;3.00;99.90;;;;;;5101875;27;20968;-75
2023/12/12 04:00:13;;;;;;;4.50;4.20;;;3.00;99.90;;;;;;5099699;28;20223;-76
2023/12/12 04:02:40;;;;;;;5.05;4.65;;;3.00;99.90;;;;;;5103295;28;20201;-75
2023/12/12 04:05:10;;;;;;;4.97;4.68;;;3.00;99.90;;;;;;5098691;28;20228;-75
2023/12/12 04:07:38;;;;;;;4.70;4.40;;;2.90;99.90;;;;;;5099162;28;20320;-75
2023/12/12 04:10:07;;;;;;;4.00;3.72;;;2.90;99.90;;;;;;5098019;28;20259;-75
2023/12/12 04:12:34;;;;;;;4.05;3.85;;;2.80;99.90;;;;;;5098869;28;20225;-75
2023/12/12 04:15:01;;;;;;;3.88;3.67;;;2.80;99.90;;;;;;5098045;27;20240;-77
2023/12/12 04:17:30;;;;;;;4.35;4.05;;;2.90;99.90;;;;;;5099317;27;20688;-75
2023/12/12 04:19:57;;;;;;;3.95;3.75;;;2.90;99.90;;;;;;5097842;27;20921;-76
2023/12/12 04:22:26;;;;;;;4.32;4.03;;;2.90;99.90;;;;;;5098581;28;20201;-77
2023/12/12 04:24:53;;;;;;;3.92;3.72;;;2.90;99.90;;;;;;5099854;28;20711;-76
2023/12/12 04:27:20;;;;;;;4.32;4.10;;;3.00;99.90;;;;;;5100830;28;20214;-76
2023/12/12 04:29:47;;;;;;;3.88;3.67;;;3.00;99.90;;;;;;5102502;28;20225;-75
2023/12/12 04:32:15;;;;;;;4.28;3.97;;;2.90;99.90;;;;;;5100568;28;20205;-76
2023/12/12 04:34:42;;;;;;;4.35;4.07;;;2.90;99.90;;;;;;5102047;28;20243;-76
2023/12/12 04:37:09;;;;;;;4.10;3.90;;;2.90;99.90;;;;;;5096247;28;20722;-75
2023/12/12 04:39:38;;;;;;;3.70;3.50;;;2.90;99.90;;;;;;5098353;28;20221;-74
2023/12/12 04:42:06;;;;;;;4.35;4.05;;;2.90;99.90;;;;;;5102828;28;20898;-76
2023/12/12 04:44:33;;;;;;;4.53;4.20;;;2.90;99.90;;;;;;5104560;27;20221;-75
2023/12/12 04:47:00;;;;;;;4.22;4.03;;;3.00;99.90;;;;;;5098332;27;20236;-77
2023/12/12 04:49:27;;;;;;;4.43;4.13;;;3.00;99.90;;;;;;5099390;28;20251;-75
2023/12/12 04:51:54;;;;;;;4.85;4.55;;;3.00;99.90;;;;;;5099143;28;20201;-75
2023/12/12 04:54:21;;;;;;;3.72;3.53;;;3.00;99.90;;;;;;5099463;28;20233;-76
2023/12/12 04:56:50;;;;;;;3.97;3.78;;;3.00;99.90;;;;;;5098305;28;20203;-77
2023/12/12 04:59:17;;;;;;;4.00;3.80;;;3.00;99.90;;;;;;5097317;27;20204;-75
2023/12/12 05:01:44;;;;;;;4.50;4.30;;;3.00;99.90;;;;;;5093382;28;20248;-75
2023/12/12 05:04:11;;;;;;;4.00;3.80;;;3.10;99.90;;;;;;5096581;28;20251;-76
2023/12/12 05:06:38;;;;;;;4.03;3.72;;;3.10;99.90;;;;;;5096891;28;20208;-76
2023/12/12 05:09:05;;;;;;;4.13;3.92;;;3.10;99.90;;;;;;5095919;27;20217;-75
2023/12/12 05:11:32;;;;;;;4.00;3.80;;;3.10;99.90;;;;;;5099713;28;20209;-76
2023/12/12 05:14:01;;;;;;;4.50;4.30;;;3.20;99.90;;;;;;5100158;28;20283;-76
2023/12/12 05:16:28;;;;;;;4.15;3.85;;;3.20;99.90;;;;;;5100300;28;20337;-75
2023/12/12 05:18:55;;;;;;;3.85;3.65;;;3.20;99.90;;;;;;5097750;28;20284;-77
2023/12/12 05:21:22;;;;;;;3.88;3.65;;;3.20;99.90;;;;;;5096405;28;20229;-76
2023/12/12 05:23:49;;;;;;;4.03;3.83;;;3.20;99.90;;;;;;5101430;28;20284;-75
2023/12/12 05:26:18;;;;;;;3.80;3.60;;;3.20;99.90;;;;;;5099273;28;20224;-76
2023/12/12 05:28:45;;;;;;;4.28;4.07;;;3.20;99.90;;;;;;5098603;28;20219;-75
2023/12/12 05:31:13;;;;;;;4.13;3.83;;;3.20;99.90;;;;;;5097622;28;20213;-75
2023/12/12 05:33:40;;;;;;;5.25;4.75;;;3.10;99.90;;;;;;5100867;28;20201;-76
2023/12/12 05:36:09;;;;;;;3.90;3.70;;;3.00;99.90;;;;;;5095638;28;20214;-75
2023/12/12 05:38:36;;;;;;;3.55;3.35;;;2.90;99.90;;;;;;5096640;28;20711;-75
2023/12/12 05:41:03;;;;;;;4.53;4.30;;;2.80;99.90;;;;;;5092003;28;20212;-75
2023/12/12 05:43:30;;;;;;;4.32;4.03;;;2.70;99.90;;;;;;5097806;28;20217;-75
2023/12/12 05:45:57;;;;;;;4.35;4.13;;;2.70;99.90;;;;;;5098111;28;20224;-75
2023/12/12 05:48:25;;;;;;;4.10;3.80;;;2.70;99.90;;;;;;5098401;27;20221;-75
2023/12/12 05:50:52;;;;;;;4.65;4.35;;;2.70;99.90;;;;;;5097927;28;20221;-76
2023/12/12 05:53:19;;;;;;;4.25;4.05;;;2.80;99.90;;;;;;5100096;28;20202;-75
2023/12/12 05:55:46;;;;;;;4.25;4.05;;;2.80;99.90;;;;;;5094264;28;20232;-75
2023/12/12 05:58:13;;;;;;;4.05;3.83;;;2.80;99.90;;;;;;5098870;28;20194;-76
2023/12/12 06:00:40;;;;;;;4.95;4.65;;;2.70;99.90;;;;;;5097595;28;20215;-73
2023/12/12 06:03:08;;;;;;;4.18;3.97;;;2.60;99.90;;;;;;5096629;28;20306;-75
2023/12/12 06:05:39;;;;;;;4.82;4.43;;;2.60;99.90;;;;;;5094115;28;20313;-76
2023/12/12 06:08:06;;;;;;;4.32;4.03;;;2.60;99.90;;;;;;5092767;28;20286;-74
2023/12/12 06:10:33;;;;;;;5.30;5.00;;;2.60;99.90;;;;;;5095170;28;20216;-76
2023/12/12 06:13:00;;;;;;;5.40;5.10;;;2.60;99.90;;;;;;5096668;28;20208;-77
2023/12/12 06:15:28;;;;;;;5.68;5.28;;;2.60;99.90;;;;;;5094423;28;20220;-76
2023/12/12 06:17:55;;;;;;;5.28;4.95;;;2.60;99.90;;;;;;5098955;28;20921;-76
2023/12/12 06:20:25;;;;;;;4.97;4.68;;;2.60;99.90;;;;;;5096720;28;20220;-75
2023/12/12 06:22:53;;;;;;;5.00;4.70;;;2.70;99.90;;;;;;5096919;28;20197;-76
2023/12/12 06:25:21;;;;;;;5.20;4.85;;;2.70;99.90;;;;;;5098406;28;20221;-76
2023/12/12 06:27:48;;;;;;;4.53;4.18;;;2.70;99.90;;;;;;5095306;28;20213;-76
2023/12/12 06:30:15;;;;;;;4.70;4.40;;;2.80;99.90;;;;;;5091927;28;20236;-76
2023/12/12 06:32:42;;;;;;;5.10;4.70;;;2.80;99.90;;;;;;5095119;28;20197;-75
2023/12/12 06:35:09;;;;;;;4.88;4.47;;;2.80;99.90;;;;;;5095311;28;20224;-76
2023/12/12 06:37:36;;;;;;;4.50;4.20;;;2.80;99.90;;;;;;5095489;27;20284;-75
2023/12/12 06:40:06;;;;;;;4.43;4.15;;;2.70;99.90;;;;;;5094135;28;20257;-76
2023/12/12 06:42:33;;;;;;;4.35;4.10;;;2.70;99.90;;;;;;5093421;28;20201;-75
2023/12/12 06:45:02;;;;;;;4.20;3.88;;;2.70;99.90;;;;;;5098811;27;20251;-75
2023/12/12 06:47:29;;;;;;;4.78;4.40;;;2.80;99.90;;;;;;5097108;28;20745;-77
2023/12/12 06:49:56;;;;;;;4.65;4.30;;;2.80;99.90;;;;;;5093298;28;20231;-75
2023/12/12 06:52:23;;;;;;;4.80;4.50;;;2.80;99.90;;;;;;5097232;28;20197;-77
2023/12/12 06:54:50;;;;;;;4.97;4.57;;;2.80;99.90;;;;;;5095990;28;20220;-75
2023/12/12 06:57:18;;;;;;;5.45;5.05;;;2.80;99.90;;;;;;5089894;28;20660;-76
2023/12/12 06:59:45;;;;;;;4.88;4.47;;;2.80;99.90;;;;;;5096010;28;20766;-76
2023/12/12 07:02:12;;;;;;;5.18;4.78;;;2.80;99.90;;;;;;5094853;28;20204;-76
2023/12/12 07:04:39;;;;;;;6.32;5.72;;;2.90;99.90;;;;;;5095087;28;20870;-76
2023/12/12 07:07:06;;;;;;;6.45;5.95;;;2.90;99.90;;;;;;5097966;28;20214;-75
2023/12/12 07:09:33;;;;;;;6.05;5.55;;;2.90;99.90;;;;;;5095693;28;20225;-76
2023/12/12 07:12:00;;;;;;;6.25;5.75;;;2.80;99.90;;;;;;5097167;28;20209;-76
2023/12/12 07:14:29;;;;;;;6.15;5.55;;;2.80;99.90;;;;;;5096266;28;20634;-77
2023/12/12 07:16:56;;;;;;;5.70;5.22;;;2.80;99.90;;;;;;5099844;28;20206;-74
2023/12/12 07:19:23;;;;;;;5.63;5.13;;;2.80;99.90;;;;;;5097630;28;20239;-76
2023/12/12 07:21:50;;;;;;;6.32;5.82;;;2.80;99.90;;;;;;5095224;28;20197;-75
2023/12/12 07:24:17;;;;;;;5.85;5.35;;;2.80;99.90;;;;;;5095663;28;20225;-75
2023/12/12 07:26:45;;;;;;;6.03;5.53;;;2.90;99.90;;;;;;5097840;28;20737;-75
2023/12/12 07:29:17;;;;;;;5.50;5.00;;;2.90;99.90;;;;;;5096602;28;20221;-76
2023/12/12 07:31:45;;;;;;;5.40;4.95;;;2.90;99.90;;;;;;5093087;28;20262;-75
2023/12/12 07:34:13;;;;;;;5.35;4.95;;;3.00;99.90;;;;;;5097897;27;20812;-74
2023/12/12 07:36:41;;;;;;;5.28;4.88;;;3.00;99.90;;;;;;5096270;28;20265;-75
2023/12/12 07:39:08;;;;;;;4.72;4.43;;;3.10;99.90;;;;;;5096509;28;20809;-75
2023/12/12 07:41:36;;;;;;;4.47;4.18;;;3.10;99.90;;;;;;5098297;28;20211;-76
2023/12/12 07:44:03;;;;;;;4.38;4.07;;;3.20;99.90;;;;;;5096351;28;20784;-76
2023/12/12 07:46:30;;;;;;;4.70;4.30;;;3.20;99.90;;;;;;5095248;28;20327;-77
2023/12/12 07:48:58;;;;;;;4.18;3.88;;;3.20;99.90;;;;;;5095125;28;20221;-75
2023/12/12 07:51:27;;;;;;;4.07;3.75;;;3.30;99.90;;;;;;5096496;28;20228;-77
2023/12/12 07:53:54;;;;;;;4.43;4.13;;;3.40;99.90;;;;;;5095771;28;20227;-76
2023/12/12 07:56:21;;;;;;;4.60;4.20;;;3.40;99.90;;;;;;5096006;28;20730;-76
2023/12/12 07:58:48;;;;;;;5.25;4.85;;;3.40;99.90;;;;;;5095223;28;20189;-75
2023/12/12 08:01:16;;;;;;;5.20;4.80;;;3.70;99.90;;;;;;5096278;27;20225;-76
2023/12/12 08:03:43;;;;;;;5.10;4.68;;;3.80;99.90;;;;;;5094010;28;20205;-76
2023/12/12 08:06:12;;;;;;;5.65;5.15;;;3.80;99.90;;;;;;5093570;28;20212;-75
2023/12/12 08:08:39;;;;;;;6.43;5.93;;;3.80;99.90;;;;;;5095025;28;20734;-76
2023/12/12 08:11:12;;;;;;;6.68;6.10;;;3.80;99.90;;;;;;5091991;27;20228;-76
2023/12/12 08:13:39;;;;;;;6.63;6.05;;;3.70;99.90;;;;;;5088638;28;20197;-75
2023/12/12 08:16:07;;;;;;;6.63;6.10;;;4.30;99.90;;;;;;5090720;28;20913;-77
2023/12/12 08:18:34;;;;;;;7.05;6.45;;;5.20;99.90;;;;;;5088401;28;20202;-75
2023/12/12 08:21:01;;;;;;;6.07;5.57;;;6.10;99.90;;;;;;5091740;28;20209;-75
2023/12/12 08:23:30;;;;;;;6.22;5.72;;;6.90;99.90;;;;;;5090980;28;20197;-75
2023/12/12 08:25:58;;;;;;;5.97;5.38;;;7.60;99.90;;;;;;5091394;28;20221;-77
2023/12/12 08:28:25;;;;;;;6.07;5.57;;;8.30;99.90;;;;;;5091326;28;20953;-77
2023/12/12 08:30:52;;;;;;;5.43;5.03;;;9.00;99.90;;;;;;5092131;28;20273;-76
2023/12/12 08:33:20;;;;;;;5.10;4.70;;;9.50;99.90;;;;;;5092068;27;20197;-76
2023/12/12 08:35:47;;;;;;;5.07;4.68;;;10.00;99.90;;;;;;5094058;27;20223;-77
2023/12/12 08:38:14;;;;;;;6.60;6.00;;;9.70;99.90;;;;;;5096679;28;20221;-77
2023/12/12 08:40:43;;;;;;;6.20;5.70;;;9.10;99.90;;;;;;5094297;28;20217;-77
2023/12/12 08:43:10;;;;;;;5.72;5.20;;;8.50;99.90;;;;;;5095780;28;20281;-76
2023/12/12 08:45:37;;;;;;;6.70;6.00;;;7.80;99.90;;;;;;5095527;28;20246;-76
2023/12/12 08:48:05;;;;;;;6.18;5.68;;;7.30;99.90;;;;;;5094487;28;20193;-77
2023/12/12 08:50:32;;;;;;;6.22;5.78;;;7.10;99.90;;;;;;5096215;28;20224;-77
2023/12/12 08:52:59;;;;;;;5.82;5.32;;;8.10;99.90;;;;;;5093833;27;20205;-77
2023/12/12 08:55:26;;;;;;;5.15;4.75;;;9.10;99.90;;;;;;5095554;27;20230;-76
2023/12/12 08:57:55;;;;;;;5.47;4.78;;;10.20;99.90;;;;;;5094662;27;20224;-76
2023/12/12 09:00:22;;;;;;;5.47;5.05;;;11.00;99.90;;;;;;5094859;28;20238;-77
2023/12/12 09:02:49;;;;;;;5.25;4.85;;;11.60;99.90;;;;;;5095394;28;20771;-77
2023/12/12 09:05:17;;;;;;;6.07;5.57;;;12.20;99.90;;;;;;5092760;28;20233;-77
2023/12/12 09:07:44;;;;;;;5.93;5.32;;;12.90;99.90;;;;;;5095848;27;20205;-77
2023/12/12 09:10:11;;;;;;;6.32;5.75;;;12.50;99.90;;;;;;5094852;27;20243;-77
2023/12/12 09:12:38;;;;;;;5.22;4.72;;;12.70;99.90;;;;;;5096038;28;20212;-77
2023/12/12 09:15:07;;;;;;;5.55;4.97;;;12.90;99.90;;;;;;5093072;28;20936;-76
2023/12/12 09:17:36;;;;;;;5.13;4.72;;;14.20;99.90;;;;;;5095411;28;20197;-77
2023/12/12 09:20:04;;;;;;;5.57;5.15;;;15.50;99.90;;;;;;5097329;27;20216;-77
2023/12/12 09:22:31;;;;;;;4.28;3.92;;;16.20;99.90;;;;;;5096060;28;20292;-78
2023/12/12 09:24:58;;;;;;;4.60;4.20;;;16.20;99.90;;;;;;5096218;28;20221;-76
2023/12/12 09:27:25;;;;;;;4.68;4.32;;;15.30;99.90;;;;;;5096831;28;20200;-76
2023/12/12 09:29:52;;;;;;;5.13;4.72;;;14.80;99.90;;;;;;5095819;28;20762;-77
2023/12/12 09:32:21;;;;;;;4.80;4.40;;;15.00;99.90;;;;;;5098756;27;20193;-77
2023/12/12 09:34:48;;;;;;;3.95;3.65;;;15.90;99.90;;;;;;5094380;27;20235;-77
2023/12/12 09:37:16;;;;;;;5.07;4.68;;;16.40;99.90;;;;;;5096910;27;20204;-76
2023/12/12 09:39:43;;;;;;;4.47;4.18;;;16.20;99.90;;;;;;5093217;28;20228;-77
2023/12/12 09:42:14;;;;;;;4.93;4.53;;;15.80;99.90;;;;;;5099188;27;20229;-76
2023/12/12 09:44:43;;;;;;;5.50;5.00;;;15.60;99.90;;;;;;5097254;27;20221;-77
2023/12/12 09:47:11;;;;;;;5.38;4.88;;;15.60;99.90;;;;;;5096549;27;20313;-76
2023/12/12 09:49:40;;;;;;;5.63;5.20;;;14.90;99.90;;;;;;5092915;27;20225;-78
2023/12/12 09:52:08;;;;;;;5.95;5.45;;;13.50;99.90;;;;;;5096931;28;20213;-77
2023/12/12 09:54:37;;;;;;;5.82;5.22;;;12.30;99.90;;;;;;5098261;27;21904;-78
2023/12/12 09:57:06;;;;;;;6.22;5.63;;;11.50;99.90;;;;;;5098807;28;20594;-76
2023/12/12 09:59:33;;;;;;;6.45;5.82;;;11.20;99.90;;;;;;5098259;27;20216;-78
2023/12/12 10:02:00;;;;;;;5.88;5.28;;;11.10;99.90;;;;;;5098384;28;20686;-77
2023/12/12 10:04:28;;;;;;;6.43;5.93;;;11.00;99.90;;;;;;5096661;28;20228;-77
2023/12/12 10:06:59;;;;;;;5.28;4.88;;;11.00;99.90;;;;;;5096836;27;20240;-76
2023/12/12 10:09:31;;;;;;;6.25;5.45;;;11.00;99.90;;;;;;5097026;28;20687;-77
2023/12/12 10:11:58;;;;;;;6.00;5.40;;;10.90;99.90;;;;;;5098136;28;20945;-77
2023/12/12 10:14:38;;;;;;;6.03;5.40;;;10.80;99.90;;;;;;5094810;28;20228;-77
2023/12/12 10:17:06;;;;;;;5.65;5.15;;;10.50;99.90;;;;;;5096299;28;20197;-78
2023/12/12 10:19:33;;;;;;;6.03;5.00;;;10.50;99.90;;;;;;5095816;28;20224;-76
2023/12/12 10:22:05;;;;;;;5.57;5.07;;;10.50;99.90;;;;;;5101631;27;20205;-78
2023/12/12 10:24:32;;;;;;;4.47;4.18;;;10.70;99.90;;;;;;5098767;27;20232;-76
2023/12/12 10:26:59;;;;;;;5.53;5.03;;;11.10;99.90;;;;;;5100551;28;20599;-77
2023/12/12 10:29:27;;;;;;;5.57;5.10;;;11.40;99.90;;;;;;5094788;27;20909;-77
2023/12/12 10:31:54;;;;;;;5.07;4.60;;;11.60;99.90;;;;;;5098921;27;20823;-78
2023/12/12 10:34:23;;;;;;;5.57;5.07;;;11.80;99.90;;;;;;5096713;28;20245;-77
2023/12/12 10:36:50;;;;;;;5.18;4.78;;;11.80;99.90;;;;;;5096763;27;20205;-78
2023/12/12 10:39:19;;;;;;;5.43;5.03;;;11.50;99.90;;;;;;5097813;28;20200;-77
2023/12/12 10:41:52;;;;;;;4.82;4.53;;;11.40;99.90;;;;;;5101656;27;20281;-76
2023/12/12 10:44:21;;;;;;;5.20;4.80;;;11.40;99.90;;;;;;5099282;27;20235;-77
2023/12/12 10:46:53;;;;;;;6.13;5.63;;;11.50;99.90;;;;;;5099723;27;20772;-77
2023/12/12 10:49:22;;;;;;;5.57;5.07;;;11.30;99.90;;;;;;5098168;27;20209;-78
2023/12/12 10:51:51;;;;;;;5.28;4.88;;;11.20;99.90;;;;;;5098184;27;20228;-76
2023/12/12 10:54:24;;;;;;;5.22;4.82;;;11.30;99.90;;;;;;5091857;28;20236;-76
2023/12/12 10:56:52;;;;;;;5.22;4.82;;;11.30;99.90;;;;;;5091422;28;20200;-75
2023/12/12 10:59:22;;;;;;;6.65;5.07;;;11.20;99.90;;;;;;5095999;28;20204;-77
2023/12/12 11:01:50;;;;;;;5.97;5.30;;;11.00;99.90;;;;;;5095290;28;20224;-76
2023/12/12 11:04:17;;;;;;;6.55;5.95;;;10.90;99.90;;;;;;5093861;28;20241;-78
2023/12/12 11:06:45;;;;;;;5.43;4.93;;;10.80;99.90;;;;;;5097200;28;20279;-76
2023/12/12 11:09:13;;;;;;;5.72;5.22;;;10.90;99.90;;;;;;5094758;28;20228;-78
2023/12/12 11:11:44;;;;;;;5.65;4.93;;;10.90;99.90;;;;;;5097083;28;22286;-77
2023/12/12 11:14:12;;;;;;;5.78;5.07;;;10.90;99.90;;;;;;5095529;28;20669;-77
2023/12/12 11:16:39;;;;;;;6.03;5.32;;;11.10;99.90;;;;;;5097109;28;20248;-79
2023/12/12 11:19:15;;;;;;;6.07;5.55;;;11.30;99.90;;;;;;5090014;28;20200;-77
2023/12/12 11:21:47;;;;;;;6.03;5.53;;;11.30;99.90;;;;;;5090156;28;20670;-77
2023/12/12 11:24:15;;;;;;;6.55;5.45;;;11.10;99.90;;;;;;5096575;28;20311;-76
2023/12/12 11:26:45;;;;;;;92.72;31.38;;;11.10;99.90;;;;;;5099782;28;20227;-77
2023/12/12 11:29:13;;;;;;;32.25;13.82;;;11.30;99.90;;;;;;5096468;28;20319;-76
2023/12/12 11:31:57;;;;;;;14.75;9.20;;;11.30;99.90;;;;;;5098840;28;20193;-78
2023/12/12 11:34:25;;;;;;;10.20;7.05;;;10.80;99.90;;;;;;5095026;28;20228;-77
2023/12/12 11:36:53;;;;;;;6.97;5.68;;;11.00;99.90;;;;;;5096733;28;20232;-78
2023/12/12 11:39:30;;;;;;;7.05;5.85;;;11.30;99.90;;;;;;5089776;28;20213;-77
2023/12/12 11:41:59;;;;;;;5.75;5.25;;;11.70;99.90;;;;;;5092503;28;20204;-77
2023/12/12 11:44:40;;;;;;;6.32;5.80;;;12.10;99.90;;;;;;5093372;27;20232;-78
2023/12/12 11:47:12;;;;;;;5.68;5.10;;;12.20;99.90;;;;;;5097084;28;20718;-79
2023/12/12 11:49:39;;;;;;;6.13;4.95;;;12.10;99.90;;;;;;5095093;28;20252;-76
2023/12/12 11:52:07;;;;;;;5.53;5.03;;;11.90;99.90;;;;;;5090486;28;20201;-76
2023/12/12 11:54:34;;;;;;;5.90;5.30;;;11.90;99.90;;;;;;5093754;27;20313;-77
2023/12/12 11:57:03;;;;;;;6.25;5.75;;;12.00;99.90;;;;;;5093167;28;20233;-78
2023/12/12 11:59:32;;;;;;;5.82;4.80;;;12.20;99.90;;;;;;5078527;28;20780;-77
2023/12/12 12:02:00;;;;;;;5.07;4.65;;;11.90;99.90;;;;;;5072969;28;20228;-77
2023/12/12 12:04:27;;;;;;;6.38;5.30;;;11.60;99.90;;;;;;5080956;28;20812;-77
2023/12/12 12:06:56;;;;;;;5.78;5.28;;;11.10;99.90;;;;;;5085022;28;20201;-76
2023/12/12 12:09:23;;;;;;;5.90;5.40;;;10.50;99.90;;;;;;5085933;28;21778;-75
2023/12/12 12:11:52;;;;;;;6.47;5.93;;;10.20;99.90;;;;;;5089126;28;20287;-78
2023/12/12 12:14:24;;;;;;;6.22;5.68;;;9.90;99.90;;;;;;5091677;27;20309;-77
2023/12/12 12:16:58;;;;;;;9.15;6.47;;;9.70;99.90;;;;;;5094150;28;20200;-77
2023/12/12 12:19:33;;;;;;;6.85;6.25;;;9.40;99.90;;;;;;5090699;27;20232;-78
2023/12/12 12:22:04;;;;;;;7.57;6.88;;;9.40;99.90;;;;;;5088866;28;20313;-77
2023/12/12 12:24:32;;;;;;;6.60;6.10;;;9.50;99.90;;;;;;5096703;28;20225;-77
2023/12/12 12:26:59;;;;;;;5.93;5.43;;;9.50;99.90;;;;;;5097266;28;20205;-78
2023/12/12 12:29:28;;;;;;;6.53;6.03;;;9.50;99.90;;;;;;5095650;28;20228;-78
2023/12/12 12:31:55;;;;;;;6.43;5.88;;;9.70;99.90;;;;;;5091126;28;20299;-77
2023/12/12 12:34:24;;;;;;;5.78;5.10;;;9.70;99.90;;;;;;5091540;28;20225;-77
2023/12/12 12:36:51;;;;;;;5.90;5.40;;;9.80;99.90;;;;;;5090911;27;20201;-77
2023/12/12 12:39:23;;;;;;;5.03;4.63;;;9.80;99.90;;;;;;5088645;27;20193;-77
2023/12/12 12:41:55;;;;;;;7.05;6.13;;;9.80;99.90;;;;;;5088506;27;20296;-78
2023/12/12 12:44:22;;;;;;;6.50;5.90;;;9.70;99.90;;;;;;5091590;28;20232;-77
2023/12/12 12:46:52;;;;;;;6.60;5.75;;;9.90;99.90;;;;;;5094985;27;20277;-78
2023/12/12 12:49:19;;;;;;;6.15;5.65;;;10.10;99.90;;;;;;5092693;28;20205;-77
2023/12/12 12:51:47;;;;;;;7.93;5.57;;;10.20;99.90;;;;;;5096112;28;20204;-77
2023/12/12 12:54:15;;;;;;;6.68;6.07;;;10.30;99.90;;;;;;5097454;27;20945;-77
2023/12/12 12:56:44;;;;;;;5.60;5.20;;;10.40;99.90;;;;;;5094865;28;20277;-78